メインページ
METAR-TAF:

METAR-TAF

空港 :

コロール, Babelthuap Island, パラオ

ロマン・トメトゥチェル国際空港

緯度: 07-22N, 経度: 134-32E, 海抜: 54m

現時点の気象観測

当レポートは16分前の12:50(UTC)に作成
北東の風 11kt、最大17ktの突風を伴う
気温 26°C
湿度 89%
気圧 1008 hPa
視程: 20.9km
高度1600ftの千切れ雲あり, 積乱雲.
高度15000ftの曇り

METAR: PTRO 241250Z 05011G17KT 13SM BKN016CB OVC150 26/24 A2977 RMK CB ALQDS

時間: 22:06 (13:06 UTC)

予報

当レポートは1時間31分前の11:35(UTC)に作成
予報は24日の 12時(UTC)から 25日の 12時(UTC)まで有効
北東の風 12kt、最大25ktの突風を伴う
視程: 10km
高度1500ftの千切れ雲あり
高度11000ftの千切れ雲あり
近辺でにわか雨
24日の 12時(UTC)から 24日の 15時(UTC)まで一時的に
弱いにわか雨
24日の 1500時(UTC)から
東/北東の風 8kt
視程: 10km
高度1500ftの雲は散在している
高度3000ftの雲は散在している
高度12000ftの千切れ雲あり
近辺でにわか雨

TAF: PTRO 241135Z 2412/2512 05012G25KT P6SM VCSH BKN015 BKN110 TEMPO 2412/2415 -SHRA FM241500 06008KT P6SM VCSH SCT015 SCT030 BKN120

4,000以上の空港の気象観測と天気予報(METAR報とTAF報)

利用可能な観測所は地図上に黄色い丸と赤い丸で示す。

丸の上にカーソルを重ねると観測所名を参照できる。

次にクリックすると気象観測と天気予報を参照できる。

マップの切り替え:黒色「×」印の緑ボタンをクリックして拡大、「-」印の緑ボタンをクリックして縮小、緑色の三角印をクリックして隣りの地図に切り替え


METAR-TAF: